createdAt,value
2022-08-05T00:01:20.828Z,2.97
2022-08-05T00:04:14.288Z,3.35
2022-08-05T00:07:00.572Z,2.85
2022-08-05T00:10:06.370Z,2.80
2022-08-05T00:12:56.343Z,3.13
2022-08-05T00:15:57.993Z,3.40
2022-08-05T00:18:46.384Z,3.08
2022-08-05T00:21:35.989Z,3.13
2022-08-05T00:24:24.774Z,2.70
2022-08-05T00:27:20.056Z,3.10
2022-08-05T00:30:14.749Z,3.53
2022-08-05T00:33:00.892Z,3.05
2022-08-05T00:35:48.022Z,3.70
2022-08-05T00:38:53.562Z,3.10
2022-08-05T00:44:30.575Z,3.20
2022-08-05T00:47:17.816Z,3.10
2022-08-05T00:50:05.171Z,2.90
2022-08-05T00:55:47.092Z,3.00
2022-08-05T00:58:32.900Z,3.45
2022-08-05T01:01:41.966Z,3.35
2022-08-05T01:04:26.847Z,3.08
2022-08-05T01:07:17.874Z,3.22
2022-08-05T01:10:09.127Z,3.63
2022-08-05T01:13:22.188Z,3.20
2022-08-05T01:16:26.336Z,2.90
2022-08-05T01:22:10.972Z,3.20
2022-08-05T01:28:39.292Z,2.92
2022-08-05T01:31:44.885Z,3.00
2022-08-05T01:34:37.155Z,2.90
2022-08-05T01:37:36.558Z,3.00
2022-08-05T01:43:50.529Z,3.38
2022-08-05T01:46:42.647Z,3.42
2022-08-05T01:49:59.985Z,3.33
2022-08-05T01:52:43.304Z,4.03
2022-08-05T01:55:36.325Z,3.20
2022-08-05T01:58:29.560Z,3.00
2022-08-05T02:01:29.307Z,3.35
2022-08-05T02:04:28.784Z,3.60
2022-08-05T02:07:22.043Z,3.40
2022-08-05T02:10:09.709Z,3.20
2022-08-05T02:13:16.325Z,3.15
2022-08-05T02:19:12.329Z,3.17
2022-08-05T02:25:02.157Z,3.25
2022-08-05T02:27:59.810Z,3.33
2022-08-05T02:39:52.743Z,3.67
2022-08-05T02:42:39.832Z,3.78
2022-08-05T02:45:28.533Z,3.95
2022-08-05T02:48:43.460Z,3.53
2022-08-05T02:58:10.734Z,3.72
2022-08-05T03:00:46.111Z,3.30
2022-08-05T03:03:34.047Z,3.20
2022-08-05T03:06:57.089Z,3.70
2022-08-05T03:09:51.748Z,3.58
2022-08-05T03:12:39.817Z,3.78
2022-08-05T03:21:33.206Z,3.25
2022-08-05T03:24:30.894Z,3.90
2022-08-05T03:27:17.098Z,3.70
2022-08-05T03:32:52.031Z,3.70
2022-08-05T03:38:37.474Z,4.03
2022-08-05T03:47:07.818Z,3.50
2022-08-05T03:49:53.661Z,3.78
2022-08-05T03:55:49.852Z,4.15
2022-08-05T03:56:30.693Z,3.58
2022-08-05T03:59:47.065Z,3.78
2022-08-05T04:02:52.335Z,3.38
2022-08-05T04:05:45.561Z,4.13
2022-08-05T04:08:36.774Z,3.95
2022-08-05T04:11:23.369Z,4.57
2022-08-05T04:14:30.421Z,4.03
2022-08-05T04:17:17.931Z,3.70
2022-08-05T04:20:05.885Z,3.90
2022-08-05T04:22:57.437Z,3.72
2022-08-05T04:26:00.505Z,3.60
2022-08-05T04:28:51.336Z,3.58
2022-08-05T04:31:38.757Z,4.13
2022-08-05T04:34:32.802Z,4.25
2022-08-05T04:37:20.534Z,3.53
2022-08-05T04:40:10.593Z,3.72
2022-08-05T04:42:56.613Z,4.15
2022-08-05T04:45:48.991Z,3.75
2022-08-05T04:48:41.079Z,3.72
2022-08-05T04:51:30.568Z,3.72
2022-08-05T04:54:20.560Z,4.30
2022-08-05T04:57:08.605Z,4.00
2022-08-05T04:59:54.852Z,3.80
2022-08-05T05:02:41.838Z,3.88
2022-08-05T05:05:29.755Z,4.38
2022-08-05T05:08:29.916Z,3.72
2022-08-05T05:11:16.659Z,3.95
2022-08-05T05:14:03.705Z,3.80
2022-08-05T05:16:40.979Z,3.85
2022-08-05T05:35:07.108Z,4.97
2022-08-05T05:38:00.039Z,4.20
2022-08-05T05:40:49.722Z,4.20
2022-08-05T05:43:56.953Z,4.45
2022-08-05T05:46:43.668Z,4.70
2022-08-05T05:49:30.650Z,4.87
2022-08-05T05:52:28.487Z,5.03
2022-08-05T05:55:19.147Z,5.07
2022-08-05T06:00:51.021Z,4.53
2022-08-05T06:03:54.103Z,5.00
2022-08-05T06:09:25.926Z,4.40
2022-08-05T06:12:28.174Z,4.22
2022-08-05T06:15:23.992Z,4.93
2022-08-05T06:18:09.915Z,5.00
2022-08-05T06:20:55.337Z,5.03
2022-08-05T06:23:44.227Z,4.70
2022-08-05T06:26:31.955Z,4.47
2022-08-05T06:29:25.083Z,5.10
2022-08-05T06:32:29.187Z,5.30
2022-08-05T06:35:21.836Z,5.40
2022-08-05T06:38:35.834Z,4.65
2022-08-05T06:41:22.317Z,5.93
2022-08-05T06:44:07.654Z,4.72
2022-08-05T06:46:54.385Z,5.15
2022-08-05T06:50:00.282Z,4.60
2022-08-05T06:52:58.635Z,5.22
2022-08-05T06:55:49.589Z,5.05
2022-08-05T06:58:36.699Z,4.47
2022-08-05T07:01:23.031Z,5.05
2022-08-05T07:04:13.912Z,4.18
2022-08-05T07:06:59.879Z,4.28
2022-08-05T07:17:59.256Z,3.97
2022-08-05T07:23:00.985Z,3.70
2022-08-05T07:25:54.930Z,4.45
2022-08-05T07:28:46.414Z,4.13
2022-08-05T07:31:40.738Z,4.13
2022-08-05T07:34:42.127Z,4.00
2022-08-05T07:37:29.084Z,4.07
2022-08-05T07:40:26.727Z,3.65
2022-08-05T07:43:20.618Z,3.53
2022-08-05T07:46:07.227Z,4.55
2022-08-05T07:49:11.025Z,3.90
2022-08-05T07:51:57.071Z,4.07
2022-08-05T07:54:47.652Z,3.95
2022-08-05T07:57:52.197Z,3.92
2022-08-05T08:00:41.823Z,4.20
2022-08-05T08:03:44.564Z,4.10
2022-08-05T08:06:32.687Z,4.40
2022-08-05T08:09:19.766Z,4.47
2022-08-05T08:12:14.666Z,4.10
2022-08-05T08:15:09.714Z,3.85
2022-08-05T08:18:01.806Z,4.20
2022-08-05T08:21:03.180Z,4.20
2022-08-05T08:24:02.727Z,3.90
2022-08-05T08:26:50.955Z,4.28
2022-08-05T08:30:05.171Z,3.75
2022-08-05T08:32:44.311Z,3.33
2022-08-05T08:35:34.822Z,3.57
2022-08-05T08:38:32.323Z,3.60
2022-08-05T08:41:25.916Z,3.47
2022-08-05T08:45:22.360Z,4.00
2022-08-05T08:48:05.406Z,3.53
2022-08-05T08:51:03.372Z,3.40
2022-08-05T08:53:45.108Z,3.40
2022-08-05T08:56:33.002Z,4.25
2022-08-05T08:59:21.023Z,3.20
2022-08-05T09:02:08.625Z,3.10
2022-08-05T09:07:40.037Z,3.03
2022-08-05T09:10:46.941Z,2.60
2022-08-05T09:14:00.970Z,2.47
2022-08-05T09:16:40.540Z,2.92
2022-08-05T09:19:36.441Z,2.35
2022-08-05T09:22:32.151Z,2.55
2022-08-05T09:25:23.967Z,2.60
2022-08-05T09:28:47.960Z,2.70
2022-08-05T09:38:12.125Z,2.80
2022-08-05T09:40:33.873Z,2.88
2022-08-05T09:52:58.659Z,3.00
2022-08-05T09:55:59.242Z,3.40
2022-08-05T10:05:09.864Z,3.17
2022-08-05T10:11:06.359Z,3.55
2022-08-05T10:13:55.918Z,3.40
2022-08-05T10:16:52.479Z,3.63
2022-08-05T10:20:03.662Z,3.40
2022-08-05T10:22:50.915Z,3.00
2022-08-05T10:25:36.937Z,3.05
2022-08-05T10:28:29.585Z,3.08
2022-08-05T10:32:48.072Z,3.15
2022-08-05T10:34:25.916Z,3.20
2022-08-05T10:37:16.401Z,3.38
2022-08-05T10:40:17.960Z,3.20
2022-08-05T10:43:36.565Z,2.80
2022-08-05T10:46:23.973Z,2.70
2022-08-05T10:49:10.482Z,2.90
2022-08-05T10:52:05.276Z,2.83
2022-08-05T10:55:07.884Z,2.88
2022-08-05T10:58:11.377Z,2.55
2022-08-05T11:01:03.089Z,2.80
2022-08-05T11:04:17.630Z,2.92
2022-08-05T11:07:08.928Z,3.15
2022-08-05T11:10:04.057Z,3.25
2022-08-05T11:12:57.632Z,3.40
2022-08-05T11:16:00.596Z,3.80
2022-08-05T11:18:47.271Z,3.60
2022-08-05T11:21:48.899Z,3.70
2022-08-05T11:24:34.996Z,3.40
2022-08-05T11:27:37.077Z,3.83
2022-08-05T11:30:55.587Z,3.78
2022-08-05T11:33:48.191Z,3.15
2022-08-05T11:36:57.105Z,3.22
2022-08-05T11:39:55.488Z,4.20
2022-08-05T11:42:48.214Z,3.40
2022-08-05T11:46:15.975Z,4.20
2022-08-05T11:48:53.074Z,3.47
2022-08-05T11:51:44.448Z,3.28
2022-08-05T11:54:41.526Z,3.58
2022-08-05T11:58:08.237Z,3.50
2022-08-05T12:00:38.133Z,3.42
2022-08-05T12:03:31.564Z,4.00
2022-08-05T12:06:20.622Z,3.63
2022-08-05T12:09:06.748Z,3.45
2022-08-05T12:11:52.395Z,3.80
2022-08-05T12:14:43.368Z,4.07
2022-08-05T12:18:03.311Z,3.80
2022-08-05T12:20:41.416Z,3.45
2022-08-05T12:23:27.183Z,3.77
2022-08-05T12:26:12.926Z,3.75
2022-08-05T12:28:58.493Z,3.22
2022-08-05T12:31:54.725Z,3.33
2022-08-05T12:34:40.683Z,5.22
2022-08-05T12:37:29.967Z,3.80
2022-08-05T12:40:26.457Z,3.78
2022-08-05T12:43:20.666Z,3.33
2022-08-05T12:46:06.646Z,3.40
2022-08-05T12:49:12.905Z,3.97
2022-08-05T12:52:12.421Z,3.55
2022-08-05T12:55:22.371Z,3.80
2022-08-05T12:58:38.693Z,3.50
2022-08-05T13:02:04.164Z,3.47
2022-08-05T13:04:21.324Z,3.85
2022-08-05T13:07:16.185Z,3.42
2022-08-05T13:10:04.653Z,3.50
2022-08-05T13:12:57.100Z,3.30
2022-08-05T13:15:50.533Z,3.50
2022-08-05T13:18:39.982Z,3.03
2022-08-05T13:21:27.855Z,4.63
2022-08-05T13:24:14.322Z,3.17
2022-08-05T13:27:38.075Z,3.08
2022-08-05T13:30:33.619Z,3.03
2022-08-05T13:34:22.941Z,2.97
2022-08-05T13:36:27.305Z,2.67
2022-08-05T13:39:24.305Z,2.80
2022-08-05T13:42:24.117Z,3.00
2022-08-05T13:45:11.069Z,3.00
2022-08-05T13:48:09.661Z,3.25
2022-08-05T13:51:09.693Z,2.53
2022-08-05T13:53:56.460Z,2.65
2022-08-05T13:56:51.033Z,2.95
2022-08-05T13:59:57.209Z,2.50
2022-08-05T14:02:44.824Z,2.63
2022-08-05T14:06:04.977Z,2.78
2022-08-05T14:08:36.420Z,2.40
2022-08-05T14:11:22.298Z,2.40
2022-08-05T14:14:08.638Z,3.20
2022-08-05T14:16:55.318Z,2.72
2022-08-05T14:19:54.661Z,3.30
2022-08-05T14:22:50.295Z,3.00
2022-08-05T14:25:35.945Z,2.40
2022-08-05T14:28:30.921Z,2.70
2022-08-05T14:31:17.365Z,2.80
2022-08-05T14:34:23.705Z,2.70
2022-08-05T14:37:09.322Z,2.38
2022-08-05T14:39:59.176Z,2.63
2022-08-05T14:42:44.407Z,2.33
2022-08-05T14:45:29.761Z,2.35
2022-08-05T14:48:32.697Z,2.28
2022-08-05T14:51:20.123Z,2.30
2022-08-05T14:54:28.967Z,2.43
2022-08-05T14:57:13.689Z,2.50
2022-08-05T14:59:59.157Z,2.10
2022-08-05T15:02:45.608Z,2.65
2022-08-05T15:06:12.934Z,2.47
2022-08-05T15:08:59.868Z,2.50
2022-08-05T15:11:53.149Z,2.63
2022-08-05T15:14:48.329Z,2.47
2022-08-05T15:20:34.445Z,2.42
2022-08-05T15:23:20.284Z,2.22
2022-08-05T15:26:05.908Z,2.03
2022-08-05T15:28:52.870Z,2.30
2022-08-05T15:31:39.318Z,2.22
2022-08-05T15:34:31.915Z,2.50
2022-08-05T15:38:08.363Z,2.25
2022-08-05T15:41:02.823Z,2.95
2022-08-05T15:43:31.323Z,2.55
2022-08-05T15:46:31.927Z,2.47
2022-08-05T15:49:26.257Z,2.40
2022-08-05T15:52:51.978Z,2.58
2022-08-05T15:56:02.062Z,2.60
2022-08-05T15:58:35.752Z,2.60
2022-08-05T16:01:29.601Z,2.50
2022-08-05T16:04:25.980Z,2.05
2022-08-05T16:07:11.811Z,2.20
2022-08-05T16:12:43.886Z,2.30
2022-08-05T16:15:32.387Z,2.20
2022-08-05T16:18:19.641Z,2.30
2022-08-05T16:21:05.261Z,2.57
2022-08-05T16:23:54.583Z,2.28
2022-08-05T16:26:55.999Z,2.00
2022-08-05T16:29:44.159Z,2.40
2022-08-05T16:32:32.913Z,2.47
2022-08-05T16:35:18.904Z,2.20
2022-08-05T16:38:23.778Z,2.05
2022-08-05T16:42:12.511Z,2.25
2022-08-05T16:44:17.578Z,2.10
2022-08-05T16:47:03.843Z,2.30
2022-08-05T16:49:50.058Z,2.08
2022-08-05T16:52:38.888Z,2.30
2022-08-05T16:55:32.446Z,2.03
2022-08-05T16:58:32.939Z,2.25
2022-08-05T17:01:19.242Z,2.15
2022-08-05T17:04:05.109Z,2.17
2022-08-05T17:06:53.007Z,2.70
2022-08-05T17:09:57.563Z,2.70
2022-08-05T17:12:51.766Z,2.10
2022-08-05T17:15:48.856Z,2.53
2022-08-05T17:18:38.429Z,2.33
2022-08-05T17:21:24.685Z,2.50
2022-08-05T17:24:28.183Z,1.90
2022-08-05T17:27:16.210Z,2.28
2022-08-05T17:30:04.395Z,2.00
2022-08-05T17:32:52.762Z,1.80
2022-08-05T17:36:09.498Z,2.35
2022-08-05T17:38:43.778Z,2.10
2022-08-05T17:42:17.520Z,2.10
2022-08-05T17:44:34.889Z,1.90
2022-08-05T17:47:22.458Z,1.92
2022-08-05T17:50:10.941Z,1.90
2022-08-05T17:53:05.401Z,1.77
2022-08-05T17:55:50.910Z,2.10
2022-08-05T17:58:37.738Z,2.05
2022-08-05T18:01:23.862Z,2.00
2022-08-05T18:04:11.822Z,1.95
2022-08-05T18:16:46.768Z,1.90
2022-08-05T18:28:48.397Z,1.88
2022-08-05T18:37:34.548Z,1.70
2022-08-05T18:40:34.094Z,1.75
2022-08-05T18:43:38.374Z,1.70
2022-08-05T18:46:29.364Z,1.88
2022-08-05T18:49:44.660Z,1.92
2022-08-05T18:52:51.071Z,1.88
2022-08-05T18:55:37.974Z,1.95
2022-08-05T18:58:28.877Z,2.60
2022-08-05T19:01:18.008Z,2.10
2022-08-05T19:04:24.019Z,1.80
2022-08-05T19:07:11.640Z,1.40
2022-08-05T19:09:58.337Z,1.80
2022-08-05T19:12:46.081Z,1.60
2022-08-05T19:15:57.870Z,1.75
2022-08-05T19:18:24.465Z,1.60
2022-08-05T19:21:10.339Z,2.10
2022-08-05T19:24:05.321Z,1.88
2022-08-05T19:26:55.819Z,2.05
2022-08-05T19:29:43.331Z,2.20
2022-08-05T19:32:30.251Z,1.80
2022-08-05T19:35:16.193Z,1.70
2022-08-05T19:38:05.901Z,1.45
2022-08-05T19:40:52.489Z,1.70
2022-08-05T19:44:05.699Z,1.70
2022-08-05T19:46:40.031Z,1.87
2022-08-05T19:49:28.982Z,1.48
2022-08-05T19:52:40.751Z,1.73
2022-08-05T19:56:13.643Z,1.77
2022-08-05T19:58:32.965Z,1.80
2022-08-05T20:01:39.349Z,1.58
2022-08-05T20:04:25.522Z,1.90
2022-08-05T20:13:11.186Z,2.08
2022-08-05T20:15:57.512Z,2.50
2022-08-05T20:21:46.462Z,1.92
2022-08-05T20:27:26.431Z,1.88
2022-08-05T20:30:13.285Z,2.20
2022-08-05T20:32:59.843Z,2.10
2022-08-05T20:35:45.951Z,1.75
2022-08-05T20:38:58.013Z,2.00
2022-08-05T20:41:45.159Z,2.10
2022-08-05T20:44:37.750Z,1.80
2022-08-05T20:47:32.356Z,3.38
2022-08-05T20:50:18.725Z,2.15
2022-08-05T20:53:05.173Z,1.92
2022-08-05T20:58:55.633Z,2.30
2022-08-05T21:01:46.469Z,1.80
2022-08-05T21:04:33.334Z,2.55
2022-08-05T21:07:19.273Z,1.98
2022-08-05T21:10:09.616Z,1.90
2022-08-05T21:13:11.274Z,2.22
2022-08-05T21:16:03.583Z,2.53
2022-08-05T21:18:50.138Z,2.53
2022-08-05T21:21:39.352Z,2.65
2022-08-05T21:24:31.102Z,2.28
2022-08-05T21:27:16.795Z,2.42
2022-08-05T21:30:07.252Z,2.17
2022-08-05T21:32:54.874Z,2.67
2022-08-05T21:36:06.512Z,2.60
2022-08-05T21:41:52.865Z,2.60
2022-08-05T21:47:56.124Z,2.65
2022-08-05T21:50:54.067Z,3.05
2022-08-05T21:53:40.645Z,2.90
2022-08-05T21:56:26.729Z,2.67
2022-08-05T21:59:24.409Z,3.55
2022-08-05T22:02:12.369Z,3.28
2022-08-05T22:05:00.174Z,3.03
2022-08-05T22:07:58.990Z,3.00
2022-08-05T22:10:48.584Z,3.50
2022-08-05T22:16:51.183Z,3.92
2022-08-05T22:22:28.842Z,3.72
2022-08-05T22:26:10.375Z,4.45
2022-08-05T22:28:40.252Z,4.10
2022-08-05T22:31:30.306Z,3.75
2022-08-05T22:34:25.449Z,4.50
2022-08-05T22:37:15.212Z,4.88
2022-08-05T22:40:01.419Z,4.20
2022-08-05T22:42:57.858Z,5.30
2022-08-05T22:45:44.598Z,4.63
2022-08-05T22:48:31.762Z,4.70
2022-08-05T22:51:23.233Z,4.82
2022-08-05T22:54:24.884Z,4.45
2022-08-05T22:57:13.681Z,5.22
2022-08-05T23:00:01.269Z,5.45
2022-08-05T23:02:52.350Z,5.07
2022-08-05T23:08:34.874Z,5.60
2022-08-05T23:11:22.050Z,5.20
2022-08-05T23:14:08.384Z,5.35
2022-08-05T23:17:15.454Z,5.50
2022-08-05T23:20:17.488Z,5.80
2022-08-05T23:23:08.650Z,6.90
2022-08-05T23:25:55.593Z,7.10
2022-08-05T23:28:43.179Z,7.50
2022-08-05T23:31:28.794Z,6.30
2022-08-05T23:34:15.868Z,6.25
2022-08-05T23:37:11.402Z,6.68
2022-08-05T23:39:56.694Z,6.55
2022-08-05T23:42:47.305Z,6.20
2022-08-05T23:45:33.536Z,6.38
2022-08-05T23:48:19.731Z,6.30
2022-08-05T23:51:05.250Z,5.80
2022-08-05T23:53:50.839Z,6.82
2022-08-05T23:56:46.418Z,7.15
